Time;durP1;ratioP1;P1;durP2;ratioP2;P2;SDS_P1;SDS_P2;PMS_P1;PMS_P2;Temp;Humidity;BMP_temperature;BMP_pressure;BME280_temperature;BME280_humidity;BME280_pressure;Samples;Min_cycle;Max_cycle;Signal;HPM_P1;HPM_P2
2021/03/20 00:01:24;;;;;;;6.80;4.05;;;;;;;0.42;84.73;100519.63;1790688;79;21182;-70
2021/03/20 00:03:53;;;;;;;7.55;4.35;;;;;;;0.43;84.75;100522.59;1800372;79;26230;-72
2021/03/20 00:06:32;;;;;;;6.67;4.33;;;;;;;0.43;84.76;100521.78;1799683;79;22378;-72
2021/03/20 00:09:00;;;;;;;8.85;5.00;;;;;;;0.42;84.73;100524.08;1797223;79;21150;-72
2021/03/20 00:11:28;;;;;;;7.50;5.37;;;;;;;0.41;84.73;100519.84;1792059;79;21127;-70
2021/03/20 00:13:57;;;;;;;8.68;5.90;;;;;;;0.43;84.76;100523.91;1785178;79;21150;-70
2021/03/20 00:16:25;;;;;;;8.70;6.10;;;;;;;0.44;84.77;100520.77;1791867;79;21211;-71
2021/03/20 00:18:53;;;;;;;8.65;5.50;;;;;;;0.42;84.73;100512.25;1797573;79;21367;-70
2021/03/20 00:21:21;;;;;;;10.58;6.00;;;;;;;0.43;84.76;100517.34;1795527;79;21130;-72
2021/03/20 00:23:49;;;;;;;8.80;6.05;;;;;;;0.46;84.69;100518.75;1799840;79;21593;-70
2021/03/20 00:26:17;;;;;;;9.30;6.10;;;;;;;0.45;84.66;100514.00;1789317;79;21642;-70
2021/03/20 00:28:45;;;;;;;8.90;6.22;;;;;;;0.48;84.65;100522.52;1796164;79;21178;-71
2021/03/20 00:31:13;;;;;;;12.98;6.85;;;;;;;0.49;84.61;100517.56;1792247;79;21442;-71
2021/03/20 00:33:42;;;;;;;10.68;6.12;;;;;;;0.50;84.62;100519.20;1784839;79;21189;-71
2021/03/20 00:36:12;;;;;;;12.47;6.97;;;;;;;0.49;84.61;100514.42;1792031;79;21178;-71
2021/03/20 00:38:40;;;;;;;16.93;7.00;;;;;;;0.48;84.64;100516.75;1796190;79;21631;-70
2021/03/20 00:41:09;;;;;;;16.17;6.97;;;;;;;0.49;84.67;100520.19;1795026;79;21131;-71
2021/03/20 00:43:37;;;;;;;21.10;8.50;;;;;;;0.49;84.67;100518.87;1787602;78;21793;-70
2021/03/20 00:46:08;;;;;;;15.30;7.33;;;;;;;0.50;84.73;100520.52;1790958;79;21665;-71
2021/03/20 00:48:39;;;;;;;17.90;6.72;;;;;;;0.51;84.75;100524.77;1792077;79;21712;-71
2021/03/20 00:51:08;;;;;;;11.80;5.30;;;;;;;0.52;84.78;100511.92;1765734;79;21162;-71
2021/03/20 00:53:36;;;;;;;17.87;6.47;;;;;;;0.53;84.75;100514.38;1806442;79;21198;-68
2021/03/20 00:56:06;;;;;;;11.10;6.10;;;;;;;0.50;84.79;100513.44;1798605;79;21699;-71
2021/03/20 00:58:39;;;;;;;12.65;5.45;;;;;;;0.51;84.79;100509.80;1796958;79;21470;-71
2021/03/20 01:01:11;;;;;;;14.63;5.42;;;;;;;0.52;84.79;100512.73;1798786;79;21198;-72
2021/03/20 01:03:41;;;;;;;12.90;5.50;;;;;;;0.57;84.73;100513.48;1794089;79;21236;-72
2021/03/20 01:06:16;;;;;;;9.95;4.92;;;;;;;0.56;84.71;100515.78;1799933;79;21123;-70
2021/03/20 01:08:43;;;;;;;9.43;5.28;;;;;;;0.57;84.65;100514.80;1802766;79;21699;-70
2021/03/20 01:11:12;;;;;;;8.90;5.03;;;;;;;0.55;84.60;100515.48;1799320;79;21199;-70
2021/03/20 01:13:42;;;;;;;8.80;4.95;;;;;;;0.56;84.59;100513.99;1794753;79;21187;-72
2021/03/20 01:16:11;;;;;;;8.35;4.85;;;;;;;0.58;84.58;100517.22;1799887;79;21076;-72
2021/03/20 01:18:40;;;;;;;9.23;5.50;;;;;;;0.62;84.52;100515.02;1794996;79;21242;-71
2021/03/20 01:21:08;;;;;;;7.42;4.42;;;;;;;0.62;84.48;100517.14;1790355;79;22293;-71
2021/03/20 01:23:37;;;;;;;8.53;5.10;;;;;;;0.64;84.40;100513.83;1795062;79;21800;-72
2021/03/20 01:26:05;;;;;;;8.03;4.92;;;;;;;0.64;84.37;100513.83;1793470;79;21174;-72
2021/03/20 01:28:34;;;;;;;7.70;4.80;;;;;;;0.65;84.31;100512.81;1796614;79;22322;-69
2021/03/20 01:31:02;;;;;;;8.03;5.03;;;;;;;0.67;84.28;100510.81;1800632;79;21210;-73
2021/03/20 01:33:30;;;;;;;8.53;5.37;;;;;;;0.68;84.22;100509.80;1795330;79;22289;-70
2021/03/20 01:35:58;;;;;;;10.45;5.67;;;;;;;0.69;84.25;100511.45;1790175;79;21311;-72
2021/03/20 01:38:27;;;;;;;9.88;6.00;;;;;;;0.74;84.20;100524.00;1790148;79;21219;-72
2021/03/20 01:40:59;;;;;;;9.23;6.20;;;;;;;0.75;84.12;100520.86;1792072;79;21198;-72
2021/03/20 01:43:29;;;;;;;10.65;6.78;;;;;;;0.75;84.08;100510.34;1794791;79;21641;-72
2021/03/20 01:46:41;;;;;;;10.58;6.65;;;;;;;0.76;84.06;100513.27;1792598;79;21327;-73
2021/03/20 01:49:24;;;;;;;11.60;6.70;;;;;;;0.79;84.05;100515.05;1798477;78;22955;-72
2021/03/20 01:52:19;;;;;;;11.10;7.05;;;;;;;0.74;84.08;100519.25;1781176;79;21177;-71
2021/03/20 01:55:08;;;;;;;12.80;8.00;;;;;;;0.77;84.12;100521.50;1769419;79;21593;-71
2021/03/20 01:57:40;;;;;;;13.53;8.60;;;;;;;0.77;84.14;100528.06;1790022;79;21600;-71
2021/03/20 02:00:14;;;;;;;;;;;;;;;0.77;84.16;100530.70;1774976;79;21177;-71
2021/03/20 02:02:42;;;;;;;13.25;8.00;;;;;;;0.77;84.15;100528.87;1772430;79;20256;-70
2021/03/20 02:05:15;;;;;;;15.93;9.83;;;;;;;0.77;84.24;100528.06;1789267;77;21140;-69
2021/03/20 02:07:45;;;;;;;15.30;9.68;;;;;;;0.79;84.25;100531.30;1808991;79;21382;-71
2021/03/20 02:10:14;;;;;;;13.13;8.75;;;;;;;0.80;84.30;100537.69;1797254;77;21176;-71
2021/03/20 02:12:44;;;;;;;14.07;8.80;;;;;;;0.80;84.32;100538.20;1781857;79;21255;-72
2021/03/20 02:15:30;;;;;;;12.53;8.68;;;;;;;0.79;84.37;100540.02;1781352;77;21178;-71
2021/03/20 02:18:18;;;;;;;14.10;9.88;;;;;;;0.78;84.39;100534.94;1786217;79;21099;-72
2021/03/20 02:21:10;;;;;;;12.28;8.73;;;;;;;0.76;84.48;100535.63;1789479;79;21375;-71
2021/03/20 02:24:36;;;;;;;15.03;9.98;;;;;;;0.74;84.50;100543.72;1798339;77;21226;-71
2021/03/20 02:28:06;;;;;;;17.37;9.88;;;;;;;0.72;84.52;100537.83;1776473;79;21200;-70
2021/03/20 02:31:18;;;;;;;13.38;8.00;;;;;;;0.65;84.56;100544.36;1798404;77;21191;-71
2021/03/20 02:33:54;;;;;;;10.82;7.35;;;;;;;0.62;84.61;100545.25;1793032;77;21575;-71
2021/03/20 02:37:04;;;;;;;10.98;6.60;;;;;;;0.59;84.67;100546.47;1799522;79;21200;-72
2021/03/20 02:39:54;;;;;;;11.22;7.47;;;;;;;0.59;84.68;100546.94;1807986;77;21131;-72
2021/03/20 02:42:47;;;;;;;10.15;6.72;;;;;;;0.53;84.57;100541.97;1787325;77;21195;-71
2021/03/20 02:45:35;;;;;;;11.70;7.37;;;;;;;0.49;84.55;100544.64;1787570;77;21222;-71
2021/03/20 02:48:21;;;;;;;14.47;8.83;;;;;;;0.49;84.63;100543.84;1799032;79;21226;-70
2021/03/20 02:51:16;;;;;;;11.40;8.53;;;;;;;0.46;84.69;100538.45;1799679;79;21372;-71
2021/03/20 02:54:05;;;;;;;13.30;8.90;;;;;;;0.49;84.71;100541.21;1794136;77;21182;-73
2021/03/20 02:57:03;;;;;;;13.38;8.85;;;;;;;0.47;84.71;100541.41;1793114;77;21215;-71
2021/03/20 02:59:35;;;;;;;13.70;9.33;;;;;;;0.48;84.77;100543.53;1765011;79;22359;-72
2021/03/20 03:02:05;;;;;;;;;;;;;;;0.45;84.80;100540.78;1777149;79;21302;-73
2021/03/20 03:04:39;;;;;;;18.30;9.85;;;;;;;0.42;84.82;100547.22;1767262;79;21377;-73
2021/03/20 03:07:15;;;;;;;16.48;9.15;;;;;;;0.43;84.88;100549.37;1795422;79;21580;-73
2021/03/20 03:09:50;;;;;;;21.73;10.03;;;;;;;0.42;84.91;100549.05;1785574;78;21242;-71
2021/03/20 03:12:41;;;;;;;19.32;9.28;;;;;;;0.40;84.98;100553.70;1760987;79;21176;-71
2021/03/20 03:15:17;;;;;;;20.82;9.35;;;;;;;0.38;85.02;100557.00;1795580;77;22101;-70
2021/03/20 03:17:56;;;;;;;24.50;10.43;;;;;;;0.39;85.09;100562.05;1838034;77;22830;-71
2021/03/20 03:20:29;;;;;;;26.62;10.58;;;;;;;0.33;85.18;100563.31;1807172;77;21182;-71
2021/03/20 03:23:16;;;;;;;24.65;10.18;;;;;;;0.32;85.31;100559.88;1839400;77;21364;-72
2021/03/20 03:25:47;;;;;;;26.50;10.78;;;;;;;0.34;85.35;100568.90;1792407;78;21726;-70
2021/03/20 03:28:20;;;;;;;26.80;10.78;;;;;;;0.31;85.39;100569.28;1808066;78;21176;-72
2021/03/20 03:30:48;;;;;;;31.87;11.68;;;;;;;0.30;85.49;100563.22;1829808;77;21820;-71
2021/03/20 03:33:30;;;;;;;27.73;11.95;;;;;;;0.27;85.55;100566.72;1820485;78;21626;-70
2021/03/20 03:36:00;;;;;;;;;;;;;;;0.30;85.65;100567.66;1825864;78;21567;-71
2021/03/20 03:38:45;;;;;;;31.25;13.78;;;;;;;0.33;85.75;100569.41;1816438;78;20291;-70
2021/03/20 03:41:29;;;;;;;26.45;13.62;;;;;;;0.34;85.79;100569.70;1788773;78;21642;-71
2021/03/20 03:43:57;;;;;;;29.82;13.45;;;;;;;0.37;85.87;100567.21;1808553;77;21118;-70
2021/03/20 03:46:31;;;;;;;22.85;13.25;;;;;;;0.42;85.88;100568.75;1826826;77;21627;-71
2021/03/20 03:49:01;;;;;;;25.57;13.13;;;;;;;0.42;85.87;100562.98;1824114;77;22295;-71
2021/03/20 03:51:29;;;;;;;25.60;13.53;;;;;;;0.43;85.86;100559.89;1836986;77;21191;-70
2021/03/20 03:53:58;;;;;;;18.27;11.60;;;;;;;0.42;85.83;100562.19;1823327;78;21175;-70
2021/03/20 03:57:02;;;;;;;21.25;11.75;;;;;;;0.41;85.76;100559.25;1817721;78;21175;-71
2021/03/20 03:59:47;;;;;;;22.02;12.43;;;;;;;0.40;85.76;100562.39;1814802;78;21120;-70
2021/03/20 04:02:49;;;;;;;22.62;11.68;;;;;;;0.40;85.76;100566.33;1810871;78;21368;-70
2021/03/20 04:05:44;;;;;;;18.92;11.53;;;;;;;0.40;85.71;100569.45;1813693;78;21104;-71
2021/03/20 04:08:25;;;;;;;19.87;11.95;;;;;;;0.41;85.67;100563.20;1829489;78;21194;-71
2021/03/20 04:11:04;;;;;;;20.65;11.85;;;;;;;0.43;85.64;100563.33;1738783;78;22229;-71
2021/03/20 04:17:10;;;;;;;18.03;9.97;;;;;;;0.50;85.54;100564.69;1823206;77;22656;-70
2021/03/20 04:20:11;;;;;;;20.30;10.88;;;;;;;0.45;85.46;100572.31;1786871;79;21108;-71
2021/03/20 04:23:03;;;;;;;17.45;10.58;;;;;;;0.43;85.38;100580.40;1795383;79;22050;-71
2021/03/20 04:25:50;;;;;;;15.83;10.43;;;;;;;0.42;85.33;100578.75;1804750;78;21072;-71
2021/03/20 04:29:04;;;;;;;18.35;10.80;;;;;;;0.44;85.29;100582.02;1804242;79;21116;-71
2021/03/20 04:31:37;;;;;;;16.30;9.83;;;;;;;0.44;85.25;100589.09;1798464;79;21159;-73
2021/03/20 04:34:38;;;;;;;14.83;9.50;;;;;;;0.45;85.24;100594.14;1793580;79;21694;-71
2021/03/20 04:37:10;;;;;;;19.60;10.15;;;;;;;0.48;85.19;100592.95;1777723;79;21486;-71
2021/03/20 04:39:42;;;;;;;15.95;10.30;;;;;;;0.52;85.10;100596.83;1767345;79;21591;-71
2021/03/20 04:42:14;;;;;;;18.65;11.38;;;;;;;0.55;85.05;100592.51;1787138;79;21619;-71
2021/03/20 04:44:42;;;;;;;17.42;10.08;;;;;;;0.57;84.99;100594.45;1794098;78;21155;-71
2021/03/20 04:47:20;;;;;;;15.20;9.20;;;;;;;0.60;84.90;100601.96;1806722;79;21087;-71
2021/03/20 04:49:54;;;;;;;14.30;9.30;;;;;;;0.61;84.79;100592.26;1796096;79;21634;-70
2021/03/20 04:52:30;;;;;;;13.18;8.55;;;;;;;0.63;84.76;100604.72;1801000;79;21567;-71
2021/03/20 04:54:58;;;;;;;13.18;7.78;;;;;;;0.62;84.72;100604.38;1804922;78;21274;-72
2021/03/20 04:57:40;;;;;;;10.50;7.50;;;;;;;0.62;84.69;100606.51;1805387;79;21179;-71
2021/03/20 05:00:22;;;;;;;12.55;8.98;;;;;;;0.64;84.66;100603.20;1815762;79;21040;-72
2021/03/20 05:03:11;;;;;;;15.83;8.95;;;;;;;0.70;84.66;100610.33;1784512;79;21344;-71
2021/03/20 05:05:52;;;;;;;15.48;9.05;;;;;;;0.71;84.63;100611.14;1808012;78;21229;-72
2021/03/20 05:08:28;;;;;;;12.78;9.03;;;;;;;0.69;84.55;100607.39;1802545;79;21071;-70
2021/03/20 05:11:19;;;;;;;12.50;8.88;;;;;;;0.72;84.55;100606.69;1801411;79;21151;-71
2021/03/20 05:14:16;;;;;;;11.30;8.28;;;;;;;0.75;84.51;100608.94;1751164;80;21135;-72
2021/03/20 05:16:58;;;;;;;11.35;8.65;;;;;;;0.75;84.40;100612.38;1806230;78;22101;-71
2021/03/20 05:19:35;;;;;;;14.13;10.00;;;;;;;0.82;84.34;100608.48;1770592;79;22833;-72
2021/03/20 05:22:03;;;;;;;13.43;9.70;;;;;;;0.77;84.22;100612.20;1722094;82;21696;-71
2021/03/20 05:24:36;;;;;;;15.32;10.45;;;;;;;0.75;84.19;100615.00;1715787;82;21828;-71
2021/03/20 05:27:07;;;;;;;18.90;9.90;;;;;;;0.80;84.19;100614.45;1723392;82;21215;-73
2021/03/20 05:29:34;;;;;;;13.05;9.55;;;;;;;0.80;84.09;100614.45;1745675;82;21583;-72
2021/03/20 05:32:05;;;;;;;14.80;9.90;;;;;;;0.86;84.12;100615.81;1714255;82;21137;-72
2021/03/20 05:34:36;;;;;;;14.75;9.88;;;;;;;0.93;84.08;100625.06;1773316;80;21151;-72
2021/03/20 05:37:05;;;;;;;14.63;9.08;;;;;;;1.00;84.02;100625.10;1766815;80;21369;-71
2021/03/20 05:39:33;;;;;;;13.45;9.55;;;;;;;1.05;83.83;100623.50;1773932;78;21190;-72
2021/03/20 05:42:31;;;;;;;16.52;10.75;;;;;;;1.12;83.58;100628.33;1784655;80;21130;-70
2021/03/20 05:45:32;;;;;;;16.37;10.65;;;;;;;1.15;83.41;100625.79;1702976;80;21295;-70
2021/03/20 05:48:16;;;;;;;;;;;;;;;1.21;83.17;100628.16;1776374;80;21192;-70
2021/03/20 05:51:04;;;;;;;14.33;9.05;;;;;;;1.24;82.69;100629.09;1769734;80;21813;-71
2021/03/20 05:54:12;;;;;;;11.95;7.97;;;;;;;1.28;82.39;100633.76;1776710;80;21071;-72
2021/03/20 05:57:08;;;;;;;13.93;9.33;;;;;;;1.33;81.90;100627.94;1686284;83;21226;-73
2021/03/20 05:59:54;;;;;;;12.07;8.10;;;;;;;1.36;81.33;100631.49;1654659;84;21220;-73
2021/03/20 06:02:31;;;;;;;10.35;7.60;;;;;;;1.44;81.03;100634.45;1696152;82;21217;-72
2021/03/20 06:05:07;;;;;;;11.43;7.22;;;;;;;1.54;80.48;100632.27;1733151;82;21826;-73
2021/03/20 06:07:52;;;;;;;11.38;7.85;;;;;;;1.60;79.93;100640.20;1729786;82;21226;-74
2021/03/20 06:10:43;;;;;;;11.15;7.70;;;;;;;1.67;79.39;100643.38;1714920;82;21139;-75
2021/03/20 06:13:52;;;;;;;10.58;6.80;;;;;;;1.69;78.93;100644.00;1729575;82;21056;-72
2021/03/20 06:16:33;;;;;;;13.13;7.55;;;;;;;1.72;78.21;100645.73;1734623;82;21143;-73
2021/03/20 06:19:29;;;;;;;12.03;7.30;;;;;;;1.75;77.62;100649.80;1743203;81;21819;-72
2021/03/20 06:22:08;;;;;;;10.43;7.47;;;;;;;1.74;77.27;100651.59;1713179;82;21195;-75
2021/03/20 06:25:01;;;;;;;12.40;7.40;;;;;;;1.75;77.04;100651.13;1738399;81;21143;-74
2021/03/20 06:27:39;;;;;;;12.20;7.15;;;;;;;1.83;76.64;100651.74;1695900;82;21160;-72
2021/03/20 06:30:31;;;;;;;12.63;7.30;;;;;;;1.92;76.15;100658.17;1732893;82;21586;-72
2021/03/20 06:33:23;;;;;;;11.50;7.83;;;;;;;1.93;75.61;100661.10;1722080;81;21378;-70
2021/03/20 06:36:11;;;;;;;12.10;7.35;;;;;;;1.93;74.96;100660.59;1719415;82;21135;-72
2021/03/20 06:38:49;;;;;;;10.70;7.53;;;;;;;1.95;74.67;100665.68;1741797;81;21163;-72
2021/03/20 06:41:38;;;;;;;10.58;6.70;;;;;;;1.97;74.40;100661.81;1731223;82;21159;-73
2021/03/20 06:44:24;;;;;;;11.25;7.58;;;;;;;2.05;74.18;100666.11;1737669;82;21228;-73
2021/03/20 06:46:52;;;;;;;10.50;7.22;;;;;;;2.10;73.71;100668.44;1735109;82;22169;-73
2021/03/20 06:49:35;;;;;;;12.82;7.42;;;;;;;2.19;73.33;100669.09;1775540;80;21185;-72
2021/03/20 06:52:05;;;;;;;12.60;7.75;;;;;;;2.24;72.65;100670.63;1767252;79;21580;-72
2021/03/20 06:54:35;;;;;;;13.48;8.28;;;;;;;2.31;72.12;100673.28;1750867;80;21588;-71
2021/03/20 06:57:04;;;;;;;10.40;6.60;;;;;;;2.37;71.93;100677.76;1749269;80;21607;-71
2021/03/20 06:59:32;;;;;;;12.35;7.85;;;;;;;2.44;71.67;100673.81;1758753;80;21367;-71
2021/03/20 07:02:32;;;;;;;10.90;7.45;;;;;;;2.49;71.50;100677.45;1763507;80;21154;-72
2021/03/20 07:05:27;;;;;;;12.28;8.25;;;;;;;2.57;71.25;100679.91;1777125;80;21177;-73
2021/03/20 07:08:12;;;;;;;10.88;7.08;;;;;;;2.65;70.89;100687.32;1751723;80;21178;-75
2021/03/20 07:10:51;;;;;;;9.85;7.15;;;;;;;2.72;70.62;100689.45;1759938;80;21151;-76
2021/03/20 07:13:25;;;;;;;12.68;7.00;;;;;;;2.76;70.25;100690.19;1771977;80;21635;-74
2021/03/20 07:16:09;;;;;;;15.15;7.85;;;;;;;2.83;70.17;100688.87;1752300;80;21083;-77
2021/03/20 07:18:43;;;;;;;12.35;7.05;;;;;;;2.93;69.73;100687.11;1768928;80;21451;-76
2021/03/20 07:21:40;;;;;;;10.90;7.20;;;;;;;3.01;69.29;100693.01;1775303;80;21154;-74
2021/03/20 07:24:43;;;;;;;10.03;6.93;;;;;;;3.13;68.97;100690.58;1859950;74;22696;-69
2021/03/20 07:27:21;;;;;;;9.93;6.42;;;;;;;3.18;68.71;100697.36;1826818;77;21222;-69
2021/03/20 07:29:58;;;;;;;9.85;6.62;;;;;;;3.26;67.99;100696.36;1820630;77;21355;-70
2021/03/20 07:32:37;;;;;;;10.50;6.78;;;;;;;3.32;68.07;100700.79;1821406;77;21653;-70
2021/03/20 07:35:18;;;;;;;10.78;6.60;;;;;;;3.39;67.88;100704.26;1837222;77;21647;-71
2021/03/20 07:37:53;;;;;;;12.03;7.10;;;;;;;3.54;66.67;100705.33;1831019;77;22048;-71
2021/03/20 07:40:31;;;;;;;9.93;6.90;;;;;;;3.52;66.50;100712.63;1840718;76;21068;-70
2021/03/20 07:43:17;;;;;;;11.30;6.90;;;;;;;3.59;66.10;100706.86;1851466;76;22264;-70
2021/03/20 07:45:48;;;;;;;13.30;7.92;;;;;;;3.65;65.73;100714.44;1816658;78;21317;-71
2021/03/20 07:48:26;;;;;;;16.52;8.05;;;;;;;3.70;65.07;100709.36;1849607;76;21159;-72
2021/03/20 07:51:13;;;;;;;15.08;8.48;;;;;;;3.73;64.98;100706.30;1815313;77;21130;-70
2021/03/20 07:53:48;;;;;;;21.12;8.63;;;;;;;3.76;63.90;100713.81;1851969;76;21085;-70
2021/03/20 07:56:36;;;;;;;13.95;8.40;;;;;;;3.75;63.68;100718.30;1819762;77;22266;-71
2021/03/20 07:59:24;;;;;;;15.72;8.53;;;;;;;3.73;63.24;100713.72;1848931;76;21062;-70
2021/03/20 08:02:01;;;;;;;15.38;7.45;;;;;;;3.77;63.98;100710.14;1857405;75;21112;-72
2021/03/20 08:04:53;;;;;;;13.75;6.92;;;;;;;3.87;63.47;100714.48;1856858;77;21141;-71
2021/03/20 08:07:42;;;;;;;9.60;5.40;;;;;;;3.87;62.96;100713.16;1816066;77;21113;-71
2021/03/20 08:10:35;;;;;;;9.73;5.28;;;;;;;3.91;62.21;100717.00;1816044;77;21205;-71
2021/03/20 08:13:44;;;;;;;8.78;4.40;;;;;;;3.97;62.00;100716.68;1848652;77;21587;-71
2021/03/20 08:16:15;;;;;;;7.55;4.70;;;;;;;4.11;61.41;100709.50;1858223;77;21521;-71
2021/03/20 08:18:43;;;;;;;7.65;4.92;;;;;;;4.18;60.04;100708.47;1837752;76;21128;-69
2021/03/20 08:21:29;;;;;;;16.60;7.15;;;;;;;4.28;60.25;100713.30;1835748;76;21107;-71
2021/03/20 08:24:25;;;;;;;17.50;7.58;;;;;;;4.39;59.68;100711.81;1837487;76;21329;-70
2021/03/20 08:27:25;;;;;;;14.63;7.05;;;;;;;4.44;59.65;100718.59;1821632;77;21096;-72
2021/03/20 08:30:25;;;;;;;15.68;7.25;;;;;;;4.55;59.64;100711.83;1826900;76;21098;-69
2021/03/20 08:33:20;;;;;;;12.45;7.00;;;;;;;4.64;58.86;100714.00;1811769;78;21078;-70
2021/03/20 08:36:09;;;;;;;11.88;6.12;;;;;;;4.58;59.52;100711.41;1856398;76;21212;-71
2021/03/20 08:39:10;;;;;;;12.15;6.28;;;;;;;4.68;59.86;100719.67;1848963;75;21090;-71
2021/03/20 08:42:08;;;;;;;15.38;7.10;;;;;;;4.78;59.29;100712.08;1684477;83;21666;-70
2021/03/20 08:45:36;;;;;;;9.87;5.80;;;;;;;4.94;58.60;100712.06;1810179;79;22872;-71
2021/03/20 08:48:27;;;;;;;;;;;;;;;5.02;58.32;100709.66;1741986;81;21123;-70
2021/03/20 08:51:24;;;;;;;13.22;5.97;;;;;;;5.17;58.06;100715.44;1776778;80;21198;-70
2021/03/20 08:54:29;;;;;;;13.45;6.00;;;;;;;5.21;58.02;100713.97;1804445;79;21189;-72
2021/03/20 08:57:15;;;;;;;8.68;5.30;;;;;;;5.13;58.06;100715.55;1790472;79;21237;-72
2021/03/20 08:59:50;;;;;;;9.75;5.08;;;;;;;5.12;57.11;100717.39;1779201;80;21089;-70
2021/03/20 09:02:30;;;;;;;12.05;5.85;;;;;;;5.02;56.09;100718.91;1776572;80;21175;-70
2021/03/20 09:05:25;;;;;;;10.03;5.45;;;;;;;4.87;55.70;100721.37;1787637;79;21623;-71
2021/03/20 09:08:23;;;;;;;10.80;5.87;;;;;;;4.74;56.38;100724.61;1781416;79;21207;-71
2021/03/20 09:11:22;;;;;;;13.72;6.05;;;;;;;4.68;56.38;100724.97;1760956;80;21212;-70
2021/03/20 09:13:58;;;;;;;13.13;6.67;;;;;;;4.69;56.73;100727.91;1776624;80;21139;-69
2021/03/20 09:16:39;;;;;;;14.00;6.20;;;;;;;4.75;56.89;100735.51;1748106;81;21195;-71
2021/03/20 09:19:10;;;;;;;;;;;;;;;4.79;56.71;100724.27;1794674;79;21397;-70
2021/03/20 09:21:39;;;;;;;10.68;5.40;;;;;;;4.90;55.68;100730.70;1773513;79;20270;-71
2021/03/20 09:24:11;;;;;;;11.00;5.25;;;;;;;5.05;56.43;100725.11;1790786;80;21069;-70
2021/03/20 09:26:51;;;;;;;11.93;5.63;;;;;;;5.11;55.79;100732.19;1810363;79;21137;-69
2021/03/20 09:29:26;;;;;;;13.53;5.53;;;;;;;5.04;54.94;100733.56;1767199;80;21187;-70
2021/03/20 09:32:11;;;;;;;8.23;4.60;;;;;;;4.91;55.09;100726.53;1820385;77;22908;-70
2021/03/20 09:34:46;;;;;;;8.10;3.67;;;;;;;4.80;54.64;100731.17;1791625;79;21213;-71
2021/03/20 09:37:22;;;;;;;6.15;3.90;;;;;;;4.74;53.62;100733.87;1795631;79;22288;-71
2021/03/20 09:39:53;;;;;;;6.97;3.42;;;;;;;4.68;52.84;100739.52;1791937;79;21222;-72
2021/03/20 09:42:30;;;;;;;6.28;3.30;;;;;;;4.67;51.92;100737.88;1788150;79;21179;-70
2021/03/20 09:45:22;;;;;;;5.37;3.42;;;;;;;4.69;50.91;100740.62;1786736;79;21279;-71
2021/03/20 09:47:54;;;;;;;6.42;3.72;;;;;;;4.77;50.68;100744.86;1805752;79;21143;-70
2021/03/20 09:50:30;;;;;;;5.17;2.90;;;;;;;4.86;49.81;100746.20;1819959;78;21477;-70
2021/03/20 09:53:16;;;;;;;5.67;2.90;;;;;;;4.88;49.33;100744.16;1801741;79;21205;-70
2021/03/20 09:55:51;;;;;;;4.05;2.40;;;;;;;4.91;48.99;100738.45;1804937;79;21120;-72
2021/03/20 09:58:24;;;;;;;5.17;2.72;;;;;;;4.90;47.34;100734.19;1803994;79;21219;-70
2021/03/20 10:00:59;;;;;;;3.72;2.30;;;;;;;4.96;47.59;100739.11;1801581;79;21182;-71
2021/03/20 10:03:50;;;;;;;5.35;2.80;;;;;;;5.01;45.89;100737.16;1802205;79;21606;-71
2021/03/20 10:06:30;;;;;;;5.95;2.58;;;;;;;5.03;46.04;100731.92;1809516;79;21187;-70
2021/03/20 10:09:19;;;;;;;4.87;3.00;;;;;;;5.04;46.08;100734.89;1809046;79;21137;-70
2021/03/20 10:12:00;;;;;;;4.65;2.40;;;;;;;5.06;44.56;100737.30;1804523;78;21626;-71
2021/03/20 10:14:33;;;;;;;4.25;2.62;;;;;;;5.07;44.15;100727.03;1801571;79;21196;-73
2021/03/20 10:17:14;;;;;;;5.35;2.45;;;;;;;5.10;44.57;100726.57;1788143;80;22442;-70
2021/03/20 10:19:53;;;;;;;6.53;3.10;;;;;;;5.15;44.09;100726.75;1805684;79;21615;-70
2021/03/20 10:22:35;;;;;;;7.20;3.50;;;;;;;5.24;44.13;100718.83;1808834;77;28391;-72
2021/03/20 10:25:04;;;;;;;5.65;3.10;;;;;;;5.21;44.52;100725.08;1800720;79;21114;-70
2021/03/20 10:27:37;;;;;;;4.20;2.72;;;;;;;5.30;45.29;100726.43;1796756;79;21132;-70
2021/03/20 10:30:19;;;;;;;5.22;2.47;;;;;;;5.40;43.02;100714.30;1807749;79;21635;-71
2021/03/20 10:33:01;;;;;;;;;;;;;;;5.43;42.97;100732.09;1816405;78;21160;-70
2021/03/20 10:35:31;;;;;;;;;;;;;;;5.44;43.38;100724.47;1803855;79;20275;-71
2021/03/20 10:38:29;;;;;;;4.40;2.47;;;;;;;5.52;42.73;100726.81;1800046;79;20556;-69
2021/03/20 10:41:10;;;;;;;4.25;2.45;;;;;;;5.54;42.71;100715.49;1775155;78;21174;-72
2021/03/20 10:43:50;;;;;;;4.22;2.60;;;;;;;5.54;42.82;100723.44;1784836;80;21139;-72
2021/03/20 10:46:35;;;;;;;4.45;2.50;;;;;;;5.55;42.54;100724.53;1786842;79;21147;-71
2021/03/20 10:49:23;;;;;;;6.62;3.40;;;;;;;5.60;43.13;100719.92;1789369;79;21547;-70
2021/03/20 10:51:54;;;;;;;5.62;2.92;;;;;;;5.68;42.47;100717.48;1802986;78;21166;-71
2021/03/20 10:54:41;;;;;;;7.53;3.20;;;;;;;5.73;42.63;100717.12;1789810;79;21171;-71
2021/03/20 10:57:23;;;;;;;4.95;2.83;;;;;;;5.82;42.25;100713.16;1787687;79;21186;-70
2021/03/20 10:59:51;;;;;;;4.40;2.67;;;;;;;5.93;41.75;100718.77;1795944;78;26806;-71
2021/03/20 11:02:31;;;;;;;5.50;2.83;;;;;;;5.97;41.22;100706.69;1806722;79;21043;-70
2021/03/20 11:05:23;;;;;;;4.70;2.30;;;;;;;5.98;41.11;100706.97;1787249;79;21603;-71
2021/03/20 11:07:55;;;;;;;5.28;2.90;;;;;;;5.98;40.61;100713.59;1795853;78;21225;-71
2021/03/20 11:10:36;;;;;;;4.80;2.50;;;;;;;5.97;40.40;100711.98;1812404;79;21174;-71
2021/03/20 11:13:09;;;;;;;4.60;2.20;;;;;;;5.99;40.78;100709.42;1799112;78;21187;-72
2021/03/20 11:15:38;;;;;;;4.60;2.47;;;;;;;6.01;41.32;100702.55;1803521;79;21170;-72
2021/03/20 11:18:17;;;;;;;4.78;2.65;;;;;;;6.05;40.45;100705.84;1794049;78;21166;-72
2021/03/20 11:20:45;;;;;;;5.00;2.50;;;;;;;6.05;40.28;100709.83;1804891;77;21361;-71
2021/03/20 11:23:34;;;;;;;5.12;2.50;;;;;;;6.01;39.32;100704.68;1810904;78;21206;-71
2021/03/20 11:26:34;;;;;;;3.85;2.30;;;;;;;5.92;39.59;100709.16;1797606;78;21159;-72
2021/03/20 11:29:06;;;;;;;5.17;2.65;;;;;;;5.85;40.20;100703.41;1778341;79;21047;-72
2021/03/20 11:31:51;;;;;;;4.20;2.40;;;;;;;5.91;40.51;100714.97;1802051;79;21196;-72
2021/03/20 11:34:24;;;;;;;4.65;2.65;;;;;;;5.97;39.83;100706.17;1769948;79;21395;-71
2021/03/20 11:36:53;;;;;;;3.83;2.33;;;;;;;6.03;39.55;100700.50;1802635;79;21170;-71
2021/03/20 11:39:21;;;;;;;4.47;2.70;;;;;;;6.03;39.67;100696.52;1787355;79;21611;-72
2021/03/20 11:41:59;;;;;;;4.87;2.42;;;;;;;6.00;39.94;100693.80;1798431;78;21170;-72
2021/03/20 11:44:29;;;;;;;6.53;3.10;;;;;;;5.97;40.40;100699.54;1798656;79;21543;-72
2021/03/20 11:47:02;;;;;;;4.10;2.60;;;;;;;6.03;40.26;100695.20;1797811;79;21801;-73
2021/03/20 11:49:45;;;;;;;6.05;3.42;;;;;;;6.10;40.48;100693.27;1817110;79;21067;-71
2021/03/20 11:52:21;;;;;;;3.55;2.17;;;;;;;6.14;39.83;100686.47;1799146;79;21143;-72
2021/03/20 11:55:07;;;;;;;4.87;2.37;;;;;;;6.18;40.19;100681.00;1787509;79;21151;-71
2021/03/20 11:57:39;;;;;;;6.20;3.12;;;;;;;6.26;39.65;100684.69;1783268;79;21143;-71
2021/03/20 12:00:31;;;;;;;4.85;3.30;;;;;;;6.21;39.83;100685.86;1807294;79;21428;-72
2021/03/20 12:03:02;;;;;;;4.95;2.87;;;;;;;6.09;40.47;100682.38;1803639;79;21559;-72
2021/03/20 12:05:32;;;;;;;5.55;3.25;;;;;;;5.96;41.05;100682.02;1802342;79;21071;-71
2021/03/20 12:08:28;;;;;;;4.17;2.92;;;;;;;5.90;41.37;100685.53;1785139;80;21063;-72
2021/03/20 12:11:08;;;;;;;6.37;3.95;;;;;;;5.88;41.92;100677.78;1793843;79;21277;-71
2021/03/20 12:13:55;;;;;;;6.22;3.85;;;;;;;5.96;41.85;100682.55;1801344;79;21597;-71
2021/03/20 12:16:35;;;;;;;4.90;3.40;;;;;;;6.03;41.82;100673.98;1785088;79;21099;-72
2021/03/20 12:19:20;;;;;;;7.87;3.77;;;;;;;5.98;42.02;100681.78;1791445;79;21183;-72
2021/03/20 12:22:15;;;;;;;6.08;3.47;;;;;;;5.97;41.84;100680.17;1795076;79;21613;-72
2021/03/20 12:24:46;;;;;;;6.03;3.75;;;;;;;5.98;43.24;100698.50;1793657;79;21582;-71
2021/03/20 12:27:34;;;;;;;6.62;4.40;;;;;;;5.82;46.00;100686.66;1790419;79;21376;-71
2021/03/20 12:30:18;;;;;;;8.90;4.70;;;;;;;5.63;47.26;100686.36;1810717;79;21127;-70
2021/03/20 12:32:48;;;;;;;5.12;3.27;;;;;;;5.40;47.78;100679.06;1807017;79;21124;-72
2021/03/20 12:35:25;;;;;;;5.37;3.47;;;;;;;5.29;48.81;100683.22;1796414;79;21056;-70